createdAt,value
2018-08-10T00:01:45.792Z,3.73
2018-08-10T00:04:15.946Z,3.67
2018-08-10T00:06:45.771Z,3.60
2018-08-10T00:09:15.692Z,3.80
2018-08-10T00:11:45.446Z,3.97
2018-08-10T00:14:15.316Z,3.90
2018-08-10T00:16:45.116Z,3.83
2018-08-10T00:19:15.157Z,3.90
2018-08-10T00:21:45.252Z,4.00
2018-08-10T00:24:15.003Z,3.63
2018-08-10T00:26:46.410Z,3.60
2018-08-10T00:29:16.320Z,4.03
2018-08-10T00:31:46.069Z,3.90
2018-08-10T00:34:16.130Z,3.60
2018-08-10T00:36:46.146Z,3.80
2018-08-10T00:39:18.366Z,3.63
2018-08-10T00:41:48.195Z,3.60
2018-08-10T00:44:16.732Z,3.90
2018-08-10T00:46:46.726Z,3.60
2018-08-10T00:49:16.590Z,3.90
2018-08-10T00:51:45.045Z,3.87
2018-08-10T00:54:14.828Z,4.47
2018-08-10T00:56:44.701Z,3.87
2018-08-10T00:59:14.436Z,4.50
2018-08-10T01:01:44.638Z,4.30
2018-08-10T01:04:14.483Z,3.70
2018-08-10T01:06:44.299Z,4.30
2018-08-10T01:09:14.495Z,4.20
2018-08-10T01:11:44.213Z,3.87
2018-08-10T01:14:14.404Z,4.07
2018-08-10T01:16:47.633Z,4.00
2018-08-10T01:19:17.399Z,4.33
2018-08-10T01:21:47.283Z,3.80
2018-08-10T01:24:17.218Z,3.70
2018-08-10T01:26:46.977Z,4.03
2018-08-10T01:29:16.782Z,4.03
2018-08-10T01:31:46.568Z,4.03
2018-08-10T01:34:16.506Z,4.13
2018-08-10T01:36:46.267Z,3.90
2018-08-10T01:39:16.059Z,4.20
2018-08-10T01:41:45.877Z,4.13
2018-08-10T01:44:15.938Z,4.67
2018-08-10T01:46:45.887Z,3.57
2018-08-10T01:49:15.752Z,3.63
2018-08-10T01:51:45.691Z,3.77
2018-08-10T01:54:14.087Z,3.40
2018-08-10T01:56:43.936Z,3.50
2018-08-10T01:59:13.797Z,3.80
2018-08-10T02:01:43.681Z,3.80
2018-08-10T02:04:13.755Z,3.73
2018-08-10T02:06:43.662Z,4.00
2018-08-10T02:09:13.416Z,3.70
2018-08-10T02:11:45.226Z,3.53
2018-08-10T02:14:15.420Z,3.73
2018-08-10T02:17:17.321Z,3.67
2018-08-10T02:19:47.115Z,3.33
2018-08-10T02:22:17.081Z,3.90
2018-08-10T02:24:46.836Z,3.30
2018-08-10T02:27:16.715Z,3.63
2018-08-10T02:29:46.849Z,3.77
2018-08-10T02:32:16.631Z,3.37
2018-08-10T02:34:49.549Z,3.87
2018-08-10T02:37:19.384Z,3.87
2018-08-10T02:39:53.579Z,3.70
2018-08-10T02:42:24.470Z,4.33
2018-08-10T02:44:55.009Z,3.60
2018-08-10T02:47:25.659Z,3.73
2018-08-10T02:49:56.593Z,4.07
2018-08-10T02:52:26.518Z,3.90
2018-08-10T02:54:56.262Z,3.37
2018-08-10T02:57:26.089Z,3.53
2018-08-10T02:59:55.887Z,3.53
2018-08-10T03:02:27.224Z,3.10
2018-08-10T03:05:01.435Z,3.40
2018-08-10T03:07:31.692Z,3.10
2018-08-10T03:10:10.584Z,3.33
2018-08-10T03:12:41.734Z,3.30
2018-08-10T03:15:18.244Z,3.40
2018-08-10T03:17:48.317Z,3.30
2018-08-10T03:20:19.729Z,3.30
2018-08-10T03:22:49.772Z,3.40
2018-08-10T03:25:19.603Z,3.03
2018-08-10T03:27:49.388Z,3.37
2018-08-10T03:30:19.740Z,3.10
2018-08-10T03:32:49.415Z,3.40
2018-08-10T03:35:19.314Z,3.90
2018-08-10T03:37:49.131Z,3.23
2018-08-10T03:40:19.100Z,3.00
2018-08-10T03:42:48.943Z,3.30
2018-08-10T03:45:18.697Z,3.50
2018-08-10T03:47:48.564Z,3.40
2018-08-10T03:50:18.477Z,3.53
2018-08-10T03:52:48.353Z,3.50
2018-08-10T03:55:18.716Z,3.20
2018-08-10T03:57:48.671Z,3.57
2018-08-10T04:00:18.559Z,3.50
2018-08-10T04:02:50.790Z,3.50
2018-08-10T04:05:21.184Z,3.50
2018-08-10T04:07:50.983Z,3.60
2018-08-10T04:10:23.002Z,4.50
2018-08-10T04:12:53.797Z,4.50
2018-08-10T04:15:23.582Z,3.70
2018-08-10T04:17:54.690Z,3.70
2018-08-10T04:20:26.720Z,3.70
2018-08-10T04:22:56.535Z,4.13
2018-08-10T04:25:26.339Z,5.50
2018-08-10T04:27:56.213Z,3.90
2018-08-10T04:33:18.689Z,4.17
2018-08-10T04:36:15.796Z,4.20
2018-08-10T04:38:47.008Z,4.87
2018-08-10T04:41:20.913Z,4.37
2018-08-10T04:43:51.973Z,4.10
2018-08-10T04:46:22.533Z,3.70
2018-08-10T04:48:52.518Z,4.30
2018-08-10T04:51:22.330Z,3.90
2018-08-10T04:53:52.113Z,4.20
2018-08-10T04:56:22.101Z,4.37
2018-08-10T04:58:52.083Z,4.20
2018-08-10T05:01:22.618Z,4.20
2018-08-10T05:03:52.668Z,4.10
2018-08-10T05:06:22.661Z,3.93
2018-08-10T05:08:52.656Z,4.10
2018-08-10T05:11:22.527Z,4.30
2018-08-10T05:13:52.431Z,3.70
2018-08-10T05:16:23.547Z,4.00
2018-08-10T05:18:53.860Z,4.23
2018-08-10T05:21:23.708Z,4.30
2018-08-10T05:23:53.476Z,3.97
2018-08-10T05:26:23.660Z,4.60
2018-08-10T05:28:53.390Z,4.47
2018-08-10T05:31:23.365Z,3.90
2018-08-10T05:33:53.730Z,4.60
2018-08-10T05:36:23.856Z,3.97
2018-08-10T05:38:56.296Z,4.50
2018-08-10T05:41:26.302Z,4.27
2018-08-10T05:43:59.367Z,4.07
2018-08-10T05:46:29.395Z,4.10
2018-08-10T05:48:59.116Z,4.33
2018-08-10T05:51:28.849Z,5.07
2018-08-10T05:53:58.638Z,5.27
2018-08-10T05:56:28.403Z,4.00
2018-08-10T05:58:58.129Z,4.67
2018-08-10T06:01:28.035Z,4.40
2018-08-10T06:03:58.285Z,4.93
2018-08-10T06:06:33.063Z,4.40
2018-08-10T06:09:04.575Z,4.80
2018-08-10T06:11:34.418Z,4.57
2018-08-10T06:14:04.159Z,4.40
2018-08-10T06:16:34.468Z,4.47
2018-08-10T06:19:04.308Z,4.60
2018-08-10T06:21:34.274Z,4.97
2018-08-10T06:24:04.707Z,4.20
2018-08-10T06:26:35.168Z,4.10
2018-08-10T06:29:05.717Z,4.93
2018-08-10T06:31:35.873Z,4.70
2018-08-10T06:34:06.347Z,4.97
2018-08-10T06:36:36.303Z,4.50
2018-08-10T06:39:12.469Z,4.77
2018-08-10T06:41:42.563Z,4.80
2018-08-10T06:44:12.419Z,4.63
2018-08-10T06:46:42.491Z,5.43
2018-08-10T06:49:13.284Z,7.10
2018-08-10T06:51:43.427Z,13.90
2018-08-10T06:54:13.328Z,14.87
2018-08-10T06:56:43.114Z,13.70
2018-08-10T06:59:13.469Z,6.40
2018-08-10T07:01:43.333Z,5.33
2018-08-10T07:04:13.957Z,5.60
2018-08-10T07:06:43.975Z,5.10
2018-08-10T07:09:14.765Z,5.30
2018-08-10T07:11:47.225Z,5.40
2018-08-10T07:14:22.197Z,5.83
2018-08-10T07:16:56.802Z,5.80
2018-08-10T07:19:27.735Z,4.83
2018-08-10T07:21:57.740Z,4.47
2018-08-10T07:24:27.681Z,5.70
2018-08-10T07:27:02.888Z,4.83
2018-08-10T07:29:33.241Z,5.57
2018-08-10T07:32:03.534Z,5.47
2018-08-10T07:34:33.470Z,5.27
2018-08-10T07:37:03.456Z,5.30
2018-08-10T07:39:33.400Z,5.37
2018-08-10T07:42:05.761Z,6.17
2018-08-10T07:44:36.722Z,5.20
2018-08-10T07:47:07.026Z,5.40
2018-08-10T07:49:38.025Z,5.70
2018-08-10T07:52:08.488Z,5.33
2018-08-10T07:54:40.925Z,5.10
2018-08-10T07:57:10.985Z,4.90
2018-08-10T07:59:40.983Z,5.97
2018-08-10T08:02:11.108Z,5.90
2018-08-10T08:04:41.068Z,5.50
2018-08-10T08:07:11.015Z,5.17
2018-08-10T08:09:40.970Z,6.27
2018-08-10T08:12:11.384Z,5.43
2018-08-10T08:14:41.143Z,5.73
2018-08-10T08:17:11.060Z,5.47
2018-08-10T08:19:40.965Z,5.20
2018-08-10T08:22:20.460Z,4.80
2018-08-10T08:24:50.394Z,5.13
2018-08-10T08:27:20.899Z,4.70
2018-08-10T08:29:51.003Z,5.60
2018-08-10T08:32:20.930Z,5.30
2018-08-10T08:34:51.040Z,4.90
2018-08-10T08:37:20.948Z,4.60
2018-08-10T08:41:04.981Z,4.90
2018-08-10T08:46:02.488Z,5.13
2018-08-10T08:48:35.307Z,5.60
2018-08-10T08:51:07.233Z,5.60
2018-08-10T08:53:43.224Z,6.30
2018-08-10T08:56:14.871Z,5.33
2018-08-10T08:58:45.879Z,5.57
2018-08-10T09:01:16.200Z,5.03
2018-08-10T09:05:03.161Z,5.20
2018-08-10T09:07:36.950Z,4.90
2018-08-10T09:10:14.828Z,5.23
2018-08-10T09:12:44.677Z,5.20
2018-08-10T09:15:16.235Z,5.07
2018-08-10T09:17:46.052Z,7.13
2018-08-10T09:20:15.837Z,5.50
2018-08-10T09:22:45.585Z,5.50
2018-08-10T09:25:17.369Z,5.30
2018-08-10T09:27:47.151Z,4.77
2018-08-10T09:30:18.583Z,4.90
2018-08-10T09:32:48.477Z,4.63
2018-08-10T09:35:18.221Z,5.03
2018-08-10T09:37:53.700Z,4.80
2018-08-10T09:40:23.416Z,5.57
2018-08-10T09:42:53.223Z,4.97
2018-08-10T09:45:23.233Z,5.37
2018-08-10T09:47:53.069Z,5.00
2018-08-10T09:50:23.176Z,5.07
2018-08-10T09:52:58.734Z,5.10
2018-08-10T09:55:34.140Z,5.20
2018-08-10T09:58:07.559Z,4.97
2018-08-10T10:00:42.612Z,5.03
2018-08-10T10:03:18.100Z,4.87
2018-08-10T10:05:48.985Z,5.30
2018-08-10T10:08:20.348Z,5.03
2018-08-10T10:10:51.267Z,6.03
2018-08-10T10:13:21.052Z,4.70
2018-08-10T10:15:50.853Z,5.00
2018-08-10T10:18:20.723Z,5.47
2018-08-10T10:20:50.651Z,5.70
2018-08-10T10:23:20.427Z,4.77
2018-08-10T10:25:50.286Z,4.90
2018-08-10T10:28:20.595Z,5.80
2018-08-10T10:30:50.337Z,4.70
2018-08-10T10:33:20.029Z,5.40
2018-08-10T10:35:49.738Z,5.97
2018-08-10T10:38:20.153Z,5.40
2018-08-10T10:40:49.900Z,6.37
2018-08-10T10:43:21.035Z,5.70
2018-08-10T10:45:50.690Z,5.10
2018-08-10T10:48:20.413Z,5.00
2018-08-10T10:50:50.189Z,5.40
2018-08-10T10:53:20.257Z,5.70
2018-08-10T10:55:49.900Z,5.40
2018-08-10T10:58:19.890Z,5.20
2018-08-10T11:00:50.208Z,4.90
2018-08-10T11:03:21.249Z,4.70
2018-08-10T11:05:50.966Z,4.67
2018-08-10T11:08:20.773Z,4.70
2018-08-10T11:10:51.179Z,5.20
2018-08-10T11:13:20.966Z,5.10
2018-08-10T11:15:50.843Z,5.20
2018-08-10T11:18:22.350Z,5.77
2018-08-10T11:20:52.126Z,5.33
2018-08-10T11:23:21.778Z,5.13
2018-08-10T11:25:53.069Z,4.43
2018-08-10T11:28:22.731Z,5.20
2018-08-10T11:30:52.499Z,4.53
2018-08-10T11:33:22.221Z,4.50
2018-08-10T11:35:52.120Z,4.90
2018-08-10T11:38:22.225Z,4.87
2018-08-10T11:40:52.213Z,4.60
2018-08-10T11:43:22.983Z,4.60
2018-08-10T11:45:52.694Z,4.50
2018-08-10T11:48:25.739Z,4.83
2018-08-10T11:50:55.532Z,4.63
2018-08-10T11:53:25.353Z,5.47
2018-08-10T11:55:55.213Z,4.83
2018-08-10T11:58:25.724Z,4.87
2018-08-10T12:00:55.816Z,4.50
2018-08-10T12:03:25.739Z,4.30
2018-08-10T12:05:56.580Z,4.40
2018-08-10T12:08:26.369Z,4.63
2018-08-10T12:10:56.716Z,4.53
2018-08-10T12:13:26.455Z,4.43
2018-08-10T12:15:57.358Z,4.93
2018-08-10T12:18:28.417Z,4.80
2018-08-10T12:20:58.220Z,4.83
2018-08-10T12:23:28.002Z,5.20
2018-08-10T12:25:57.850Z,4.67
2018-08-10T12:28:27.601Z,4.43
2018-08-10T12:30:57.541Z,4.80
2018-08-10T12:33:27.330Z,5.40
2018-08-10T12:35:57.071Z,4.83
2018-08-10T12:38:26.765Z,5.23
2018-08-10T12:40:56.361Z,5.30
2018-08-10T12:43:26.222Z,5.07
2018-08-10T12:45:55.953Z,4.63
2018-08-10T12:48:25.764Z,5.40
2018-08-10T12:50:55.672Z,5.40
2018-08-10T12:53:29.931Z,4.80
2018-08-10T12:55:59.964Z,4.53
2018-08-10T12:58:29.864Z,3.87
2018-08-10T13:00:59.706Z,4.80
2018-08-10T13:03:30.816Z,5.20
2018-08-10T13:06:01.730Z,5.03
2018-08-10T13:08:31.910Z,4.83
2018-08-10T13:11:01.797Z,4.77
2018-08-10T13:13:32.254Z,5.13
2018-08-10T13:16:02.385Z,4.63
2018-08-10T13:18:32.202Z,4.70
2018-08-10T13:21:17.473Z,5.00
2018-08-10T13:23:47.344Z,4.70
2018-08-10T13:26:17.056Z,4.50
2018-08-10T13:29:03.691Z,4.80
2018-08-10T13:31:33.610Z,5.07
2018-08-10T13:34:04.153Z,4.93
2018-08-10T13:37:24.276Z,4.60
2018-08-10T13:39:55.508Z,5.03
2018-08-10T13:42:25.622Z,5.30
2018-08-10T13:44:56.058Z,4.57
2018-08-10T13:47:25.779Z,5.10
2018-08-10T13:49:55.628Z,4.40
2018-08-10T13:52:26.058Z,5.87
2018-08-10T13:54:55.758Z,5.33
2018-08-10T13:57:25.397Z,5.10
2018-08-10T13:59:55.716Z,4.93
2018-08-10T14:02:26.742Z,4.83
2018-08-10T14:04:57.189Z,5.27
2018-08-10T14:07:27.828Z,4.97
2018-08-10T14:09:57.635Z,5.20
2018-08-10T14:12:27.671Z,5.40
2018-08-10T14:14:57.425Z,4.60
2018-08-10T14:17:28.060Z,4.77
2018-08-10T14:19:57.747Z,4.93
2018-08-10T14:22:27.593Z,4.77
2018-08-10T14:24:57.322Z,4.83
2018-08-10T14:27:27.050Z,4.67
2018-08-10T14:29:57.017Z,5.20
2018-08-10T14:32:26.864Z,4.50
2018-08-10T14:34:56.656Z,5.00
2018-08-10T14:37:26.704Z,5.03
2018-08-10T14:39:56.816Z,4.80
2018-08-10T14:42:26.905Z,5.03
2018-08-10T14:44:56.934Z,5.10
2018-08-10T14:47:27.603Z,4.90
2018-08-10T14:49:58.659Z,4.83
2018-08-10T14:52:30.696Z,4.90
2018-08-10T14:55:02.669Z,5.33
2018-08-10T14:57:35.759Z,5.07
2018-08-10T15:00:12.368Z,5.23
2018-08-10T15:02:42.051Z,5.07
2018-08-10T15:05:12.505Z,5.20
2018-08-10T15:07:42.729Z,5.00
2018-08-10T15:10:18.910Z,5.23
2018-08-10T15:12:48.805Z,6.43
2018-08-10T15:15:20.498Z,7.10
2018-08-10T15:17:51.724Z,5.90
2018-08-10T15:20:22.168Z,5.73
2018-08-10T15:22:52.173Z,4.83
2018-08-10T15:25:21.996Z,5.53
2018-08-10T15:27:52.346Z,5.23
2018-08-10T15:30:22.081Z,5.10
2018-08-10T15:32:52.009Z,5.07
2018-08-10T15:35:22.001Z,5.20
2018-08-10T15:37:52.465Z,5.00
2018-08-10T15:40:22.438Z,5.10
2018-08-10T15:42:54.939Z,5.40
2018-08-10T15:45:25.579Z,5.33
2018-08-10T15:47:58.615Z,5.40
2018-08-10T15:50:29.177Z,4.70
2018-08-10T15:52:58.885Z,5.00
2018-08-10T15:55:28.600Z,5.20
2018-08-10T15:58:00.660Z,4.87
2018-08-10T16:00:42.351Z,4.60
2018-08-10T16:03:12.295Z,5.10
2018-08-10T16:05:42.042Z,4.87
2018-08-10T16:08:15.710Z,5.10
2018-08-10T16:10:45.450Z,6.40
2018-08-10T16:13:15.206Z,5.10
2018-08-10T16:15:44.892Z,4.97
2018-08-10T16:18:14.735Z,5.20
2018-08-10T16:20:46.088Z,5.20
2018-08-10T16:23:16.834Z,6.00
2018-08-10T16:25:46.535Z,5.80
2018-08-10T16:28:16.567Z,4.80
2018-08-10T16:30:46.277Z,5.20
2018-08-10T16:33:17.296Z,4.80
2018-08-10T16:35:46.995Z,5.40
2018-08-10T16:38:17.776Z,5.10
2018-08-10T16:40:50.010Z,5.03
2018-08-10T16:43:22.955Z,4.83
2018-08-10T16:45:54.281Z,5.60
2018-08-10T16:48:24.128Z,5.00
2018-08-10T16:50:53.749Z,5.97
2018-08-10T16:53:23.599Z,5.50
2018-08-10T16:55:54.131Z,7.47
2018-08-10T16:58:24.520Z,5.80
2018-08-10T17:00:54.704Z,6.60
2018-08-10T17:03:24.973Z,6.17
2018-08-10T17:05:54.669Z,5.90
2018-08-10T17:08:24.540Z,6.50
2018-08-10T17:10:54.935Z,5.57
2018-08-10T17:13:26.874Z,6.07
2018-08-10T17:15:56.735Z,5.33
2018-08-10T17:18:27.074Z,5.60
2018-08-10T17:20:56.808Z,5.20
2018-08-10T17:23:28.269Z,5.50
2018-08-10T17:25:58.112Z,5.00
2018-08-10T17:28:27.748Z,5.20
2018-08-10T17:30:57.557Z,5.57
2018-08-10T17:33:27.371Z,5.20
2018-08-10T17:35:57.076Z,5.33
2018-08-10T17:38:26.841Z,5.23
2018-08-10T17:40:56.685Z,5.17
2018-08-10T17:43:26.497Z,5.47
2018-08-10T17:45:56.301Z,5.23
2018-08-10T17:48:26.099Z,5.40
2018-08-10T17:50:56.100Z,5.40
2018-08-10T17:53:25.893Z,5.40
2018-08-10T17:55:57.426Z,5.17
2018-08-10T17:58:27.102Z,6.00
2018-08-10T18:00:56.809Z,5.10
2018-08-10T18:03:43.752Z,5.23
2018-08-10T18:06:14.508Z,5.40
2018-08-10T18:08:44.430Z,6.10
2018-08-10T18:11:14.064Z,5.10
2018-08-10T18:13:43.910Z,5.40
2018-08-10T18:16:13.876Z,5.43
2018-08-10T18:18:43.923Z,5.60
2018-08-10T18:21:15.085Z,5.53
2018-08-10T18:23:44.960Z,5.30
2018-08-10T18:26:16.452Z,5.40
2018-08-10T18:28:49.285Z,5.00
2018-08-10T18:31:23.098Z,5.40
2018-08-10T18:33:53.818Z,5.87
2018-08-10T18:36:24.823Z,5.27
2018-08-10T18:38:55.248Z,5.60
2018-08-10T18:41:25.172Z,5.40
2018-08-10T18:44:16.333Z,5.37
2018-08-10T18:46:46.310Z,5.47
2018-08-10T18:49:16.090Z,5.87
2018-08-10T18:51:46.419Z,5.77
2018-08-10T18:54:16.905Z,5.33
2018-08-10T18:56:47.122Z,5.53
2018-08-10T18:59:17.123Z,5.90
2018-08-10T19:01:48.172Z,6.17
2018-08-10T19:04:25.717Z,5.30
2018-08-10T19:07:06.929Z,5.50
2018-08-10T19:10:03.909Z,5.80
2018-08-10T19:12:43.918Z,5.40
2018-08-10T19:15:25.886Z,5.37
2018-08-10T19:17:57.724Z,4.97
2018-08-10T19:20:27.462Z,5.20
2018-08-10T19:22:57.442Z,4.60
2018-08-10T19:25:28.231Z,5.50
2018-08-10T19:27:58.437Z,5.40
2018-08-10T19:30:28.173Z,5.10
2018-08-10T19:32:58.449Z,5.57
2018-08-10T19:35:30.380Z,5.00
2018-08-10T19:38:00.229Z,5.40
2018-08-10T19:40:30.492Z,5.60
2018-08-10T19:43:01.716Z,5.13
2018-08-10T19:45:35.260Z,5.10
2018-08-10T19:48:07.580Z,5.43
2018-08-10T19:53:44.919Z,5.03
2018-08-10T19:56:16.097Z,5.47
2018-08-10T19:58:48.530Z,5.30
2018-08-10T20:01:19.108Z,5.40
2018-08-10T20:03:50.404Z,4.80
2018-08-10T20:06:20.079Z,5.33
2018-08-10T20:08:52.739Z,4.67
2018-08-10T20:11:22.903Z,4.90
2018-08-10T20:13:55.003Z,4.83
2018-08-10T20:16:24.810Z,5.07
2018-08-10T20:18:55.950Z,5.53
2018-08-10T20:21:25.989Z,5.63
2018-08-10T20:23:59.795Z,5.20
2018-08-10T20:26:29.654Z,5.13
2018-08-10T20:29:03.136Z,5.17
2018-08-10T20:31:33.885Z,4.90
2018-08-10T20:34:03.977Z,4.80
2018-08-10T20:36:34.287Z,4.90
2018-08-10T20:39:04.739Z,4.77
2018-08-10T20:41:34.843Z,5.33
2018-08-10T20:44:06.063Z,5.37
2018-08-10T20:46:37.046Z,5.20
2018-08-10T20:49:10.283Z,5.50
2018-08-10T20:51:39.988Z,5.00
2018-08-10T20:54:09.922Z,4.67
2018-08-10T20:56:39.688Z,4.80
2018-08-10T20:59:09.466Z,5.07
2018-08-10T21:01:39.237Z,4.57
2018-08-10T21:04:09.129Z,4.50
2018-08-10T21:06:40.877Z,4.60
2018-08-10T21:09:14.182Z,5.20
2018-08-10T21:11:45.323Z,4.63
2018-08-10T21:14:15.752Z,4.60
2018-08-10T21:16:45.666Z,4.70
2018-08-10T21:19:15.651Z,5.00
2018-08-10T21:21:45.433Z,4.23
2018-08-10T21:24:15.261Z,5.00
2018-08-10T21:26:45.085Z,4.57
2018-08-10T21:29:14.869Z,4.53
2018-08-10T21:31:45.660Z,4.90
2018-08-10T21:34:15.581Z,4.90
2018-08-10T21:36:45.477Z,4.30
2018-08-10T21:39:15.215Z,4.80
2018-08-10T21:41:44.985Z,4.63
2018-08-10T21:44:14.724Z,4.17
2018-08-10T21:46:44.661Z,4.20
2018-08-10T21:49:14.414Z,4.27
2018-08-10T21:51:45.939Z,4.80
2018-08-10T21:54:33.738Z,4.83
2018-08-10T21:57:04.485Z,4.80
2018-08-10T21:59:34.505Z,4.30
2018-08-10T22:02:04.730Z,4.67
2018-08-10T22:04:34.490Z,4.70
2018-08-10T22:07:04.688Z,4.40
2018-08-10T22:09:36.724Z,4.03
2018-08-10T22:12:13.913Z,4.60
2018-08-10T22:14:50.028Z,4.50
2018-08-10T22:17:24.933Z,5.20
2018-08-10T22:20:14.870Z,4.37
2018-08-10T22:22:45.597Z,5.00
2018-08-10T22:25:16.323Z,4.60
2018-08-10T22:27:46.147Z,4.17
2018-08-10T22:30:16.634Z,4.20
2018-08-10T22:32:46.672Z,4.47
2018-08-10T22:35:16.727Z,4.30
2018-08-10T22:37:46.732Z,4.57
2018-08-10T22:40:16.580Z,4.63
2018-08-10T22:42:46.541Z,4.23
2018-08-10T22:45:16.347Z,4.30
2018-08-10T22:47:46.423Z,5.20
2018-08-10T22:50:16.260Z,4.70
2018-08-10T22:52:46.032Z,4.00
2018-08-10T22:55:16.206Z,4.47
2018-08-10T22:57:46.210Z,4.07
2018-08-10T23:00:15.977Z,4.20
2018-08-10T23:02:45.700Z,4.40
2018-08-10T23:05:15.747Z,4.00
2018-08-10T23:07:45.695Z,4.33
2018-08-10T23:10:16.692Z,3.80
2018-08-10T23:12:46.562Z,4.03
2018-08-10T23:15:16.495Z,4.10
2018-08-10T23:17:46.486Z,4.40
2018-08-10T23:20:17.553Z,4.50
2018-08-10T23:22:48.734Z,3.40
2018-08-10T23:25:18.565Z,4.37
2018-08-10T23:27:51.170Z,4.27
2018-08-10T23:30:21.178Z,4.70
2018-08-10T23:32:50.916Z,3.80
2018-08-10T23:35:21.689Z,3.80
2018-08-10T23:37:51.558Z,3.60
2018-08-10T23:40:21.378Z,3.90
2018-08-10T23:42:51.220Z,3.60
2018-08-10T23:45:21.090Z,3.77
2018-08-10T23:47:51.913Z,4.40
2018-08-10T23:50:23.075Z,4.73
2018-08-10T23:52:52.939Z,4.10
2018-08-10T23:55:22.747Z,3.60
2018-08-10T23:57:52.542Z,3.93
